Time;durP1;ratioP1;P1;durP2;ratioP2;P2;SDS_P1;SDS_P2;PMS_P1;PMS_P2;Temp;Humidity;BMP_temperature;BMP_pressure;BME280_temperature;BME280_humidity;BME280_pressure;Samples;Min_cycle;Max_cycle;Signal;HPM_P1;HPM_P2
2022/12/11 00:01:29;;;;;;;;;;;20.90;80.70;;;;;;5095262;28;19912;-46
2022/12/11 00:03:55;;;;;;;;;;;20.90;80.80;;;;;;5095556;28;19908;-48
2022/12/11 00:06:21;;;;;;;;;;;20.90;80.70;;;;;;5095448;28;19908;-47
2022/12/11 00:08:49;;;;;;;;;;;20.90;80.70;;;;;;5095170;28;20003;-47
2022/12/11 00:11:15;;;;;;;;;;;20.90;80.70;;;;;;5095221;28;20382;-48
2022/12/11 00:13:41;;;;;;;;;;;20.90;80.70;;;;;;5095089;28;19961;-46
2022/12/11 00:16:07;;;;;;;;;;;20.90;80.70;;;;;;5094976;28;19908;-47
2022/12/11 00:18:32;;;;;;;;;;;20.90;80.80;;;;;;5076984;28;19958;-49
2022/12/11 00:21:02;;;;;;;;;;;20.90;80.80;;;;;;5095216;28;19919;-45
2022/12/11 00:23:27;;;;;;;;;;;20.90;80.90;;;;;;5095193;28;19915;-46
2022/12/11 00:25:53;;;;;;;;;;;20.90;80.90;;;;;;5095511;28;19909;-45
2022/12/11 00:28:19;;;;;;;;;;;20.80;80.80;;;;;;5094707;28;20053;-45
2022/12/11 00:30:44;;;;;;;;;;;20.80;80.90;;;;;;5095114;28;19908;-51
2022/12/11 00:33:10;;;;;;;;;;;20.80;80.90;;;;;;5094760;28;20045;-48
2022/12/11 00:35:43;;;;;;;;;;;20.80;81.10;;;;;;5094730;28;19908;-45
2022/12/11 00:38:13;;;;;;;;;;;20.80;81.30;;;;;;5094463;28;20006;-47
2022/12/11 00:40:38;;;;;;;;;;;20.70;81.40;;;;;;5094574;28;19927;-47
2022/12/11 00:43:04;;;;;;;;;;;20.80;81.30;;;;;;5094879;28;19912;-46
2022/12/11 00:45:29;;;;;;;;;;;20.70;81.30;;;;;;5094857;28;20383;-45
2022/12/11 00:47:55;;;;;;;;;;;20.70;81.30;;;;;;5094731;28;19914;-51
2022/12/11 00:50:20;;;;;;;;;;;20.70;81.40;;;;;;5094715;28;19908;-44
2022/12/11 00:52:46;;;;;;;;;;;20.70;81.40;;;;;;5094284;28;19909;-45
2022/12/11 00:55:12;;;;;;;;;;;20.70;81.50;;;;;;5094206;28;19912;-47
2022/12/11 00:57:38;;;;;;;;;;;20.70;81.50;;;;;;5094118;28;20278;-46
2022/12/11 01:00:05;;;;;;;;;;;20.70;81.50;;;;;;5094185;28;20286;-44
2022/12/11 01:02:32;;;;;;;;;;;20.70;81.60;;;;;;5094143;28;19908;-46
2022/12/11 01:04:57;;;;;;;;;;;20.70;81.50;;;;;;5094740;28;19908;-45
2022/12/11 01:07:23;;;;;;;;;;;20.70;81.50;;;;;;5094136;28;19999;-47
2022/12/11 01:12:33;;;;;;;;;;;20.80;81.40;;;;;;5094130;28;19915;-47
2022/12/11 01:14:58;;;;;;;;;;;20.80;81.30;;;;;;5094514;28;20262;-46
2022/12/11 01:17:24;;;;;;;;;;;20.90;81.30;;;;;;5094040;28;20370;-46
2022/12/11 01:19:49;;;;;;;;;;;20.90;81.20;;;;;;5094125;28;20269;-45
2022/12/11 01:22:15;;;;;;;;;;;20.90;81.20;;;;;;5093807;28;19920;-47
2022/12/11 01:24:40;;;;;;;;;;;20.90;81.20;;;;;;5094027;28;19914;-47
2022/12/11 01:27:05;;;;;;;;;;;20.90;81.20;;;;;;5093940;28;20404;-47
2022/12/11 01:29:31;;;;;;;;;;;20.90;81.20;;;;;;5093840;28;19945;-47
2022/12/11 01:31:56;;;;;;;;;;;20.90;81.10;;;;;;5094567;28;19961;-45
2022/12/11 01:34:22;;;;;;;;;;;20.90;81.00;;;;;;5094317;28;20414;-48
2022/12/11 01:36:47;;;;;;;;;;;21.00;81.00;;;;;;5094089;28;19908;-47
2022/12/11 01:39:13;;;;;;;;;;;21.00;81.00;;;;;;5093670;28;20354;-48
2022/12/11 01:41:38;;;;;;;;;;;21.00;81.10;;;;;;5093799;28;19912;-48
2022/12/11 01:44:24;;;;;;;;;;;20.90;81.00;;;;;;5093719;28;20370;-48
2022/12/11 01:46:49;;;;;;;;;;;21.00;81.10;;;;;;5093127;28;19908;-46
2022/12/11 01:49:16;;;;;;;;;;;20.90;81.10;;;;;;5094018;28;19908;-47
2022/12/11 01:51:44;;;;;;;;;;;20.90;81.20;;;;;;5097003;28;19916;-47
2022/12/11 01:54:11;;;;;;;;;;;20.90;81.20;;;;;;5098095;28;19912;-48
2022/12/11 01:56:38;;;;;;;;;;;20.90;81.30;;;;;;5098015;28;19951;-48
2022/12/11 01:59:06;;;;;;;;;;;20.80;81.30;;;;;;5097835;28;19912;-46
2022/12/11 02:01:31;;;;;;;;;;;20.90;81.30;;;;;;5097567;28;19916;-45
2022/12/11 02:03:57;;;;;;;;;;;20.80;81.30;;;;;;5097585;28;19908;-47
2022/12/11 02:06:35;;;;;;;;;;;20.80;81.30;;;;;;5097815;28;20454;-45
2022/12/11 02:09:01;;;;;;;;;;;20.80;81.40;;;;;;5097780;28;19908;-45
2022/12/11 02:11:39;;;;;;;;;;;20.70;81.30;;;;;;5097468;28;20006;-46
2022/12/11 02:14:12;;;;;;;;;;;20.80;81.50;;;;;;5097432;28;20379;-47
2022/12/11 02:16:44;;;;;;;;;;;20.80;81.40;;;;;;5097532;28;19908;-45
2022/12/11 02:19:30;;;;;;;;;;;20.80;81.50;;;;;;5097524;28;20359;-47
2022/12/11 02:21:57;;;;;;;;;;;20.80;81.40;;;;;;5065840;28;19912;-47
2022/12/11 02:24:42;;;;;;;;;;;20.80;81.40;;;;;;5097255;28;19908;-47
2022/12/11 02:27:15;;;;;;;;;;;20.80;81.30;;;;;;5097386;28;19918;-48
2022/12/11 02:29:54;;;;;;;;;;;20.80;81.40;;;;;;5097381;28;19911;-46
2022/12/11 02:32:29;;;;;;;;;;;20.80;81.40;;;;;;5096691;28;19908;-45
2022/12/11 02:34:54;;;;;;;;;;;20.90;81.50;;;;;;5096932;28;20011;-46
2022/12/11 02:37:21;;;;;;;;;;;20.90;81.40;;;;;;5097209;28;19954;-45
2022/12/11 02:39:48;;;;;;;;;;;20.90;81.50;;;;;;5096478;28;20349;-46
2022/12/11 02:42:15;;;;;;;;;;;20.90;81.40;;;;;;5097331;28;19948;-50
2022/12/11 02:44:41;;;;;;;;;;;20.90;81.40;;;;;;5097164;28;19908;-47
2022/12/11 02:47:10;;;;;;;;;;;20.90;81.40;;;;;;5097020;28;19912;-45
2022/12/11 02:49:36;;;;;;;;;;;21.00;81.40;;;;;;5097050;28;19908;-45
2022/12/11 02:52:02;;;;;;;;;;;20.90;81.70;;;;;;5097011;28;20303;-48
2022/12/11 02:54:30;;;;;;;;;;;20.90;81.40;;;;;;5096938;28;19909;-46
2022/12/11 02:56:58;;;;;;;;;;;20.90;81.40;;;;;;5096851;28;19908;-46
2022/12/11 02:59:27;;;;;;;;;;;20.90;81.40;;;;;;5096444;28;19916;-47
2022/12/11 03:01:52;;;;;;;;;;;20.90;81.40;;;;;;5096258;28;19916;-47
2022/12/11 03:04:18;;;;;;;;;;;20.90;81.40;;;;;;5096691;28;19958;-48
2022/12/11 03:06:46;;;;;;;;;;;20.90;81.50;;;;;;5096721;28;20058;-48
2022/12/11 03:09:12;;;;;;;;;;;20.90;81.50;;;;;;5096397;28;19912;-48
2022/12/11 03:11:37;;;;;;;;;;;20.90;81.40;;;;;;5096330;28;19934;-46
2022/12/11 03:14:03;;;;;;;;;;;20.90;81.40;;;;;;5096205;28;19912;-46
2022/12/11 03:16:36;;;;;;;;;;;20.90;81.50;;;;;;5096426;28;19948;-47
2022/12/11 03:19:23;;;;;;;;;;;20.90;81.60;;;;;;5096224;28;19916;-46
2022/12/11 03:22:00;;;;;;;;;;;20.90;81.80;;;;;;5096590;28;19965;-45
2022/12/11 03:24:31;;;;;;;;;;;20.90;81.60;;;;;;5096413;28;19915;-46
2022/12/11 03:26:59;;;;;;;;;;;20.80;81.50;;;;;;5096305;28;19908;-45
2022/12/11 03:29:30;;;;;;;;;;;20.90;81.60;;;;;;5096072;28;19908;-48
2022/12/11 03:31:56;;;;;;;;;;;20.90;81.60;;;;;;5096088;28;20382;-48
2022/12/11 03:34:26;;;;;;;;;;;20.90;81.60;;;;;;5096045;28;19923;-45
2022/12/11 03:36:52;;;;;;;;;;;20.90;81.80;;;;;;5095737;28;19965;-46
2022/12/11 03:39:20;;;;;;;;;;;20.90;82.30;;;;;;5096021;28;19912;-46
2022/12/11 03:41:47;;;;;;;;;;;20.80;81.70;;;;;;5095910;28;20448;-47
2022/12/11 03:44:13;;;;;;;;;;;20.80;81.70;;;;;;5095623;28;19908;-45
2022/12/11 03:46:39;;;;;;;;;;;20.80;81.70;;;;;;5095603;28;20029;-44
2022/12/11 03:49:08;;;;;;;;;;;20.80;81.90;;;;;;5095861;28;19954;-46
2022/12/11 03:51:34;;;;;;;;;;;20.70;81.90;;;;;;5095750;28;19908;-48
2022/12/11 03:54:00;;;;;;;;;;;20.60;82.00;;;;;;5095400;28;19908;-45
2022/12/11 03:56:27;;;;;;;;;;;20.70;82.20;;;;;;5095410;28;19958;-48
2022/12/11 03:58:53;;;;;;;;;;;20.70;82.30;;;;;;5095589;28;19912;-46
2022/12/11 04:01:18;;;;;;;;;;;20.60;82.20;;;;;;5093285;28;20010;-46
2022/12/11 04:03:44;;;;;;;;;;;20.70;82.40;;;;;;5094045;28;19908;-46
2022/12/11 04:06:09;;;;;;;;;;;20.70;82.30;;;;;;5093846;28;20369;-47
2022/12/11 04:08:35;;;;;;;;;;;20.70;82.30;;;;;;5093543;28;19954;-48
2022/12/11 04:15:00;;;;;;;;;;;20.70;82.10;;;;;;5091418;28;19915;-47
2022/12/11 04:16:31;;;;;;;;;;;20.70;81.90;;;;;;5093629;28;19908;-50
2022/12/11 04:24:24;;;;;;;;;;;20.90;81.80;;;;;;5093582;28;20411;-50
2022/12/11 04:26:50;;;;;;;;;;;20.90;81.70;;;;;;5094738;28;19920;-47
2022/12/11 04:29:15;;;;;;;;;;;20.90;81.60;;;;;;5093635;28;20371;-46
2022/12/11 04:31:41;;;;;;;;;;;20.60;75.20;;;;;;5093288;28;19916;-46
2022/12/11 04:34:06;;;;;;;;;;;20.70;79.30;;;;;;5093457;28;19920;-49
2022/12/11 04:36:32;;;;;;;;;;;20.80;80.70;;;;;;5093371;28;19912;-46
2022/12/11 04:38:57;;;;;;;;;;;20.90;81.00;;;;;;5092870;28;19922;-51
2022/12/11 04:41:23;;;;;;;;;;;20.90;81.10;;;;;;5093558;28;20347;-47
2022/12/11 04:43:48;;;;;;;;;;;20.90;81.00;;;;;;5091574;28;19998;-46
2022/12/11 04:46:15;;;;;;;;;;;20.90;81.10;;;;;;5090881;28;19954;-46
2022/12/11 04:48:41;;;;;;;;;;;20.90;81.10;;;;;;5097965;28;19912;-45
2022/12/11 04:51:07;;;;;;;;;;;21.00;81.40;;;;;;5094037;28;20003;-45
2022/12/11 04:53:33;;;;;;;;;;;20.90;81.40;;;;;;5079678;28;20012;-48
2022/12/11 04:55:58;;;;;;;;;;;20.90;81.40;;;;;;5092904;28;19923;-50
2022/12/11 04:58:26;;;;;;;;;;;20.90;81.40;;;;;;5092900;28;19912;-46
2022/12/11 05:00:51;;;;;;;;;;;20.90;81.50;;;;;;5054451;28;19920;-45
2022/12/11 05:03:17;;;;;;;;;;;20.90;81.60;;;;;;5093340;28;19908;-45
2022/12/11 05:05:50;;;;;;;;;;;20.80;81.50;;;;;;5094159;28;19955;-47
2022/12/11 05:08:16;;;;;;;;;;;20.80;81.60;;;;;;5093243;28;19909;-46
2022/12/11 05:10:41;;;;;;;;;;;20.80;81.90;;;;;;5094088;28;20154;-46
2022/12/11 05:13:07;;;;;;;;;;;20.80;81.90;;;;;;5094395;28;19947;-48
2022/12/11 05:15:32;;;;;;;;;;;20.80;81.80;;;;;;5093929;28;20008;-45
2022/12/11 05:17:58;;;;;;;;;;;20.80;81.80;;;;;;5094262;28;19915;-45
2022/12/11 05:20:23;;;;;;;;;;;20.80;81.80;;;;;;5094742;28;19962;-46
2022/12/11 05:22:48;;;;;;;;;;;20.80;81.70;;;;;;5094041;28;19915;-46
2022/12/11 05:25:14;;;;;;;;;;;20.70;81.70;;;;;;5093955;28;19959;-46
2022/12/11 05:27:39;;;;;;;;;;;20.80;81.80;;;;;;5094242;28;19977;-45
2022/12/11 05:30:05;;;;;;;;;;;20.80;81.90;;;;;;5094220;28;20400;-47
2022/12/11 05:32:31;;;;;;;;;;;20.70;81.80;;;;;;5094209;28;20386;-45
2022/12/11 05:34:56;;;;;;;;;;;20.70;81.80;;;;;;5093758;28;19920;-49
2022/12/11 05:37:22;;;;;;;;;;;20.70;81.90;;;;;;5094248;28;19912;-46
2022/12/11 05:39:47;;;;;;;;;;;20.70;81.90;;;;;;5076150;28;19960;-47
2022/12/11 05:42:13;;;;;;;;;;;20.80;81.80;;;;;;5094193;28;19935;-47
2022/12/11 05:44:38;;;;;;;;;;;20.80;81.80;;;;;;5076026;28;19908;-47
2022/12/11 05:47:03;;;;;;;;;;;20.80;81.90;;;;;;5093999;28;20049;-46
2022/12/11 05:49:29;;;;;;;;;;;20.80;81.80;;;;;;5093789;28;19909;-48
2022/12/11 05:51:54;;;;;;;;;;;20.80;81.70;;;;;;5094036;28;19915;-45
2022/12/11 05:54:20;;;;;;;;;;;20.80;81.70;;;;;;5093758;28;19934;-46
2022/12/11 05:56:48;;;;;;;;;;;20.80;81.60;;;;;;5093643;28;19908;-49
2022/12/11 05:59:13;;;;;;;;;;;20.90;81.60;;;;;;5093442;28;19912;-46
2022/12/11 06:01:40;;;;;;;;;;;20.90;81.60;;;;;;5093828;28;19919;-46
2022/12/11 06:04:06;;;;;;;;;;;20.90;81.70;;;;;;5093824;28;19930;-48
2022/12/11 06:06:32;;;;;;;;;;;20.90;81.60;;;;;;5093644;28;19912;-47
2022/12/11 06:08:59;;;;;;;;;;;20.90;81.70;;;;;;5093890;28;20393;-46
2022/12/11 06:11:25;;;;;;;;;;;20.90;81.50;;;;;;5093494;28;20371;-48
2022/12/11 06:13:51;;;;;;;;;;;21.00;81.50;;;;;;5093538;28;20004;-46
2022/12/11 06:16:17;;;;;;;;;;;20.90;81.50;;;;;;5093707;28;19943;-48
2022/12/11 06:18:43;;;;;;;;;;;21.00;81.40;;;;;;5093356;28;19986;-48
2022/12/11 06:21:29;;;;;;;;;;;20.90;81.40;;;;;;5093734;28;19957;-46
2022/12/11 06:23:56;;;;;;;;;;;21.00;81.60;;;;;;5093280;28;19934;-46
2022/12/11 06:26:21;;;;;;;;;;;21.00;81.50;;;;;;5093586;28;20366;-47
2022/12/11 06:28:47;;;;;;;;;;;21.00;81.40;;;;;;5093280;28;19908;-47
2022/12/11 06:31:13;;;;;;;;;;;21.00;81.40;;;;;;5093371;28;19915;-46
2022/12/11 06:33:39;;;;;;;;;;;21.00;81.40;;;;;;5093577;28;20344;-47
2022/12/11 06:36:06;;;;;;;;;;;21.00;81.40;;;;;;5094180;28;19908;-48
2022/12/11 06:38:32;;;;;;;;;;;21.00;81.40;;;;;;5096989;28;19923;-47
2022/12/11 06:40:58;;;;;;;;;;;21.00;81.40;;;;;;5097150;28;19912;-45
2022/12/11 06:43:24;;;;;;;;;;;21.00;81.40;;;;;;5096862;28;19915;-46
2022/12/11 06:45:49;;;;;;;;;;;21.00;81.40;;;;;;5096994;28;19908;-49
2022/12/11 06:48:15;;;;;;;;;;;21.00;81.40;;;;;;5096706;28;19945;-47
2022/12/11 06:50:40;;;;;;;;;;;21.00;81.50;;;;;;5096989;28;19908;-48
2022/12/11 06:53:06;;;;;;;;;;;20.90;81.50;;;;;;5096882;28;20362;-47
2022/12/11 06:55:34;;;;;;;;;;;20.90;81.60;;;;;;5096836;28;19947;-46
2022/12/11 06:57:59;;;;;;;;;;;20.90;81.80;;;;;;5078570;28;20289;-46
2022/12/11 07:00:25;;;;;;;;;;;20.90;81.60;;;;;;5093901;28;19916;-46
2022/12/11 07:02:51;;;;;;;;;;;20.80;81.80;;;;;;5095344;28;19915;-49
2022/12/11 07:05:17;;;;;;;;;;;20.80;81.90;;;;;;5094878;28;19908;-48
2022/12/11 07:07:42;;;;;;;;;;;20.80;81.90;;;;;;5094952;28;19908;-48
2022/12/11 07:10:08;;;;;;;;;;;20.80;82.00;;;;;;5094795;28;19944;-47
2022/12/11 07:12:34;;;;;;;;;;;20.80;82.00;;;;;;5095032;28;19929;-49
2022/12/11 07:14:59;;;;;;;;;;;20.80;81.90;;;;;;5094960;28;19908;-47
2022/12/11 07:17:25;;;;;;;;;;;20.80;81.90;;;;;;5094887;28;19916;-51
2022/12/11 07:19:50;;;;;;;;;;;20.80;81.90;;;;;;5094604;28;19919;-45
2022/12/11 07:22:15;;;;;;;;;;;20.80;82.30;;;;;;5094924;28;20308;-48
2022/12/11 07:24:41;;;;;;;;;;;20.80;81.70;;;;;;5095004;28;19916;-45
2022/12/11 07:27:07;;;;;;;;;;;20.80;82.00;;;;;;5094531;28;19999;-46
2022/12/11 07:29:32;;;;;;;;;;;20.80;82.00;;;;;;5094834;28;19912;-45
2022/12/11 07:31:58;;;;;;;;;;;20.90;81.90;;;;;;5094631;28;19908;-47
2022/12/11 07:34:23;;;;;;;;;;;20.90;81.90;;;;;;5096283;28;20256;-47
2022/12/11 07:36:49;;;;;;;;;;;20.90;81.70;;;;;;5095927;28;19912;-46
2022/12/11 07:39:14;;;;;;;;;;;21.00;81.60;;;;;;5095507;28;19966;-45
2022/12/11 07:41:40;;;;;;;;;;;21.00;82.10;;;;;;5093135;28;19924;-47
2022/12/11 07:44:05;;;;;;;;;;;21.00;81.50;;;;;;5095573;28;20358;-47
2022/12/11 07:46:31;;;;;;;;;;;21.00;81.70;;;;;;5095813;28;20343;-47
2022/12/11 07:48:59;;;;;;;;;;;21.00;81.60;;;;;;5094915;28;20392;-47
2022/12/11 07:51:27;;;;;;;;;;;21.00;81.50;;;;;;5095801;28;19977;-46
2022/12/11 07:53:53;;;;;;;;;;;21.00;81.60;;;;;;5095303;28;20308;-45
2022/12/11 07:56:19;;;;;;;;;;;21.00;81.70;;;;;;5095644;28;20301;-51
2022/12/11 07:58:44;;;;;;;;;;;21.00;81.80;;;;;;5097370;28;19916;-47
2022/12/11 08:01:12;;;;;;;;;;;21.00;81.80;;;;;;5094184;28;19922;-47
2022/12/11 08:03:38;;;;;;;;;;;20.90;81.70;;;;;;5093763;28;19914;-46
2022/12/11 08:06:03;;;;;;;;;;;20.90;81.70;;;;;;5093923;28;20002;-50
2022/12/11 08:08:29;;;;;;;;;;;20.90;81.90;;;;;;5093760;28;19908;-45
2022/12/11 08:10:55;;;;;;;;;;;20.90;82.00;;;;;;5080844;28;19920;-47
2022/12/11 08:13:20;;;;;;;;;;;20.90;82.00;;;;;;5094635;28;20266;-51
2022/12/11 08:15:45;;;;;;;;;;;20.90;82.00;;;;;;5094159;28;19912;-50
2022/12/11 08:18:11;;;;;;;;;;;20.90;82.00;;;;;;5095119;28;19942;-47
2022/12/11 08:20:38;;;;;;;;;;;20.80;81.90;;;;;;5093268;28;19955;-47
2022/12/11 08:23:03;;;;;;;;;;;20.80;82.00;;;;;;5095086;28;19908;-47
2022/12/11 08:25:29;;;;;;;;;;;20.80;82.10;;;;;;5094784;28;19908;-49
2022/12/11 08:27:54;;;;;;;;;;;20.80;82.10;;;;;;5094514;28;19909;-48
2022/12/11 08:30:20;;;;;;;;;;;20.90;82.00;;;;;;5094648;28;19908;-47
2022/12/11 08:32:45;;;;;;;;;;;20.90;82.10;;;;;;5094601;28;20392;-48
2022/12/11 08:35:11;;;;;;;;;;;20.90;81.90;;;;;;5095098;28;19924;-46
2022/12/11 08:37:36;;;;;;;;;;;20.90;81.80;;;;;;5094920;28;20351;-47
2022/12/11 08:40:02;;;;;;;;;;;21.00;81.70;;;;;;5094726;28;19958;-51
2022/12/11 08:42:27;;;;;;;;;;;20.90;81.70;;;;;;5076710;28;20316;-47
2022/12/11 08:44:53;;;;;;;;;;;21.00;81.80;;;;;;5097773;28;19912;-46
2022/12/11 08:47:18;;;;;;;;;;;21.00;81.80;;;;;;5091162;28;20544;-48
2022/12/11 08:49:44;;;;;;;;;;;21.00;82.00;;;;;;5098703;28;19912;-47
2022/12/11 08:52:09;;;;;;;;;;;21.00;81.60;;;;;;5093418;28;19908;-50
2022/12/11 08:54:35;;;;;;;;;;;21.00;81.40;;;;;;5090943;28;20002;-45
2022/12/11 08:57:01;;;;;;;;;;;21.10;81.80;;;;;;5090450;28;19905;-46
2022/12/11 08:59:26;;;;;;;;;;;21.10;81.70;;;;;;5093029;28;19927;-51
2022/12/11 09:01:53;;;;;;;;;;;21.10;81.60;;;;;;5093039;28;19978;-46
2022/12/11 09:04:19;;;;;;;;;;;21.10;81.70;;;;;;5092687;28;19904;-47
2022/12/11 09:06:44;;;;;;;;;;;21.10;81.60;;;;;;5094426;28;19930;-45
2022/12/11 09:09:10;;;;;;;;;;;21.00;81.70;;;;;;5092989;28;20357;-46
2022/12/11 09:11:36;;;;;;;;;;;21.00;81.60;;;;;;5093074;28;19904;-45
2022/12/11 09:14:02;;;;;;;;;;;21.00;81.50;;;;;;5093399;28;19908;-45
2022/12/11 09:16:28;;;;;;;;;;;21.00;81.70;;;;;;5102780;28;20022;-46
2022/12/11 09:18:55;;;;;;;;;;;21.00;81.40;;;;;;5100122;28;19920;-46
2022/12/11 09:21:22;;;;;;;;;;;20.90;81.80;;;;;;5088933;28;19920;-46
2022/12/11 09:23:48;;;;;;;;;;;20.90;81.90;;;;;;5092621;28;19953;-46
2022/12/11 09:26:15;;;;;;;;;;;20.90;81.80;;;;;;5093245;28;19912;-49
2022/12/11 09:28:41;;;;;;;;;;;20.90;81.70;;;;;;5106106;28;19980;-48
2022/12/11 09:31:07;;;;;;;;;;;20.90;81.80;;;;;;5100615;28;19998;-46
2022/12/11 09:33:33;;;;;;;;;;;20.90;81.80;;;;;;5093784;28;20383;-52
2022/12/11 09:35:58;;;;;;;;;;;20.80;81.70;;;;;;5089058;28;19920;-46
2022/12/11 09:38:25;;;;;;;;;;;20.80;81.60;;;;;;5080364;28;19916;-51
2022/12/11 09:40:50;;;;;;;;;;;20.90;81.70;;;;;;5087734;28;20006;-46
2022/12/11 09:43:31;;;;;;;;;;;20.90;81.70;;;;;;5107521;28;19955;-47
2022/12/11 09:45:59;;;;;;;;;;;20.90;81.40;;;;;;5093664;28;19919;-51
2022/12/11 09:48:25;;;;;;;;;;;20.80;81.30;;;;;;5109574;28;20489;-49
2022/12/11 09:50:52;;;;;;;;;;;20.90;81.30;;;;;;5081600;28;19918;-52
2022/12/11 09:53:20;;;;;;;;;;;21.00;81.70;;;;;;5091000;28;20306;-50
2022/12/11 09:56:11;;;;;;;;;;;21.00;81.60;;;;;;5073687;28;19975;-48
2022/12/11 09:58:43;;;;;;;;;;;21.10;81.70;;;;;;5074738;28;20374;-46
2022/12/11 10:01:13;;;;;;;;;;;21.10;81.40;;;;;;5073352;28;19915;-47
2022/12/11 10:03:51;;;;;;;;;;;21.20;81.60;;;;;;5093440;28;19919;-47
2022/12/11 10:06:19;;;;;;;;;;;21.10;81.50;;;;;;5097916;28;19912;-45
2022/12/11 10:09:01;;;;;;;;;;;21.10;81.50;;;;;;5093674;28;19908;-48
2022/12/11 10:11:29;;;;;;;;;;;21.10;81.60;;;;;;5094641;28;19908;-49
2022/12/11 10:13:55;;;;;;;;;;;21.10;80.90;;;;;;5113974;28;19950;-48
2022/12/11 10:16:36;;;;;;;;;;;21.10;81.50;;;;;;5097443;28;19943;-45
2022/12/11 10:19:02;;;;;;;;;;;21.10;82.00;;;;;;5095231;28;19915;-46
2022/12/11 10:21:31;;;;;;;;;;;21.10;81.00;;;;;;5099459;28;20277;-46
2022/12/11 10:24:02;;;;;;;;;;;21.10;82.00;;;;;;5117830;28;19908;-45
2022/12/11 10:26:28;;;;;;;;;;;21.10;82.60;;;;;;5099512;28;19912;-47
2022/12/11 10:28:57;;;;;;;;;;;21.00;83.30;;;;;;5097204;28;19908;-46
2022/12/11 10:31:23;;;;;;;;;;;21.10;82.70;;;;;;5096625;28;19912;-47
2022/12/11 10:33:48;;;;;;;;;;;21.10;83.40;;;;;;5097012;28;20416;-46
2022/12/11 10:36:17;;;;;;;;;;;21.00;83.40;;;;;;5106368;28;19935;-46
2022/12/11 10:38:44;;;;;;;;;;;21.00;83.30;;;;;;5117400;28;19969;-46
2022/12/11 10:41:11;;;;;;;;;;;21.00;84.40;;;;;;5113877;28;19924;-45
2022/12/11 10:43:38;;;;;;;;;;;21.10;83.90;;;;;;5096838;28;19957;-48
2022/12/11 10:46:05;;;;;;;;;;;21.00;83.80;;;;;;5095843;28;19994;-45
2022/12/11 10:48:30;;;;;;;;;;;21.10;84.40;;;;;;5091026;28;20418;-47
2022/12/11 10:51:06;;;;;;;;;;;21.10;84.50;;;;;;5095162;28;20038;-48
2022/12/11 10:53:33;;;;;;;;;;;21.00;84.00;;;;;;5099243;28;20007;-46
2022/12/11 10:55:58;;;;;;;;;;;21.00;84.10;;;;;;5105023;28;19911;-46
2022/12/11 10:58:25;;;;;;;;;;;21.10;84.10;;;;;;5094780;28;20006;-46
2022/12/11 11:01:06;;;;;;;;;;;21.10;84.90;;;;;;5075559;28;19916;-48
2022/12/11 11:03:32;;;;;;;;;;;21.00;85.40;;;;;;5094146;28;19919;-44
2022/12/11 11:06:05;;;;;;;;;;;21.00;84.30;;;;;;5096335;28;20382;-45
2022/12/11 11:08:39;;;;;;;;;;;21.00;84.90;;;;;;5096334;28;19908;-46
2022/12/11 11:11:05;;;;;;;;;;;21.00;84.90;;;;;;5108385;28;20375;-46
2022/12/11 11:13:30;;;;;;;;;;;21.00;84.10;;;;;;5101183;28;19912;-47
2022/12/11 11:16:00;;;;;;;;;;;21.00;84.20;;;;;;5093729;28;19957;-46
2022/12/11 11:18:26;;;;;;;;;;;21.00;83.90;;;;;;5100982;28;19916;-45
2022/12/11 11:20:52;;;;;;;;;;;21.00;83.80;;;;;;5095920;28;19916;-47
2022/12/11 11:23:20;;;;;;;;;;;21.00;83.70;;;;;;5110708;28;19911;-46
2022/12/11 11:25:51;;;;;;;;;;;21.00;83.90;;;;;;5098064;28;20012;-47
2022/12/11 11:28:20;;;;;;;;;;;21.00;83.90;;;;;;5092984;28;20385;-47
2022/12/11 11:30:55;;;;;;;;;;;21.00;83.60;;;;;;5107145;28;20420;-46
2022/12/11 11:33:21;;;;;;;;;;;21.00;83.60;;;;;;5113566;28;19911;-45
2022/12/11 11:36:05;;;;;;;;;;;21.00;83.60;;;;;;5110429;28;20316;-51
2022/12/11 11:38:36;;;;;;;;;;;21.00;83.90;;;;;;5103945;28;20018;-47
2022/12/11 11:41:22;;;;;;;;;;;21.00;83.30;;;;;;5096472;28;19922;-49
2022/12/11 11:43:59;;;;;;;;;;;21.10;83.70;;;;;;5093002;28;20418;-47
2022/12/11 11:46:43;;;;;;;;;;;21.10;83.80;;;;;;5107104;28;19965;-46
2022/12/11 11:49:08;;;;;;;;;;;21.10;83.70;;;;;;5112094;28;20319;-48
2022/12/11 11:51:43;;;;;;;;;;;21.10;83.60;;;;;;5102006;28;19951;-50
2022/12/11 11:54:30;;;;;;;;;;;21.10;83.50;;;;;;5092112;28;19919;-50
2022/12/11 11:56:56;;;;;;;;;;;21.10;83.40;;;;;;5101063;28;19991;-48
2022/12/11 11:59:26;;;;;;;;;;;21.20;83.30;;;;;;5115860;28;19920;-46
2022/12/11 12:01:54;;;;;;;;;;;21.10;83.10;;;;;;5096194;28;19938;-48
2022/12/11 12:04:19;;;;;;;;;;;21.20;83.10;;;;;;5093528;28;20389;-49
2022/12/11 12:06:48;;;;;;;;;;;21.20;83.10;;;;;;5095232;28;19908;-51
2022/12/11 12:09:20;;;;;;;;;;;21.20;83.00;;;;;;5095129;28;19961;-49
2022/12/11 12:11:56;;;;;;;;;;;21.20;82.90;;;;;;5076458;28;19973;-50
2022/12/11 12:14:29;;;;;;;;;;;21.20;82.80;;;;;;5095251;28;20366;-49
2022/12/11 12:17:10;;;;;;;;;;;21.20;82.70;;;;;;5107356;28;19939;-47
2022/12/11 12:19:42;;;;;;;;;;;21.20;82.70;;;;;;5093219;28;20015;-48
2022/12/11 12:22:17;;;;;;;;;;;21.20;82.60;;;;;;5093828;28;19916;-45
2022/12/11 12:24:48;;;;;;;;;;;21.20;82.60;;;;;;5094530;28;19961;-47
2022/12/11 12:27:19;;;;;;;;;;;21.20;82.50;;;;;;5093347;28;20315;-46
2022/12/11 12:29:54;;;;;;;;;;;21.20;82.50;;;;;;5091624;28;20244;-47
2022/12/11 12:32:27;;;;;;;;;;;21.10;82.40;;;;;;5099394;28;20281;-47
2022/12/11 12:34:59;;;;;;;;;;;21.10;82.50;;;;;;5082933;28;19920;-49
2022/12/11 12:37:29;;;;;;;;;;;21.10;82.50;;;;;;5099404;28;19911;-49
2022/12/11 12:40:13;;;;;;;;;;;21.10;82.50;;;;;;5093220;28;20325;-48
2022/12/11 12:42:51;;;;;;;;;;;21.10;82.40;;;;;;5094558;28;19958;-48
2022/12/11 12:45:24;;;;;;;;;;;21.10;82.40;;;;;;5110448;28;19919;-52
2022/12/11 12:47:49;;;;;;;;;;;21.10;82.40;;;;;;5096528;28;20373;-47
2022/12/11 12:50:20;;;;;;;;;;;21.10;82.90;;;;;;5113124;28;19919;-46
2022/12/11 12:52:46;;;;;;;;;;;21.10;82.40;;;;;;5094932;28;19912;-49
2022/12/11 12:55:21;;;;;;;;;;;21.10;82.40;;;;;;5093000;28;20283;-46
2022/12/11 12:58:06;;;;;;;;;;;21.10;82.40;;;;;;5075971;28;19908;-47
2022/12/11 13:00:34;;;;;;;;;;;21.10;82.30;;;;;;5091828;28;20436;-49
2022/12/11 13:03:01;;;;;;;;;;;21.10;82.30;;;;;;5094020;28;19961;-48
2022/12/11 13:05:29;;;;;;;;;;;21.10;82.10;;;;;;5101576;28;20454;-45
2022/12/11 13:07:56;;;;;;;;;;;21.20;82.20;;;;;;5089748;28;20397;-48
2022/12/11 13:10:22;;;;;;;;;;;21.20;82.10;;;;;;5093961;28;19908;-45
2022/12/11 13:12:47;;;;;;;;;;;21.20;82.00;;;;;;5094092;28;19953;-49
2022/12/11 13:15:34;;;;;;;;;;;21.20;82.00;;;;;;5093849;28;20339;-50
2022/12/11 13:18:00;;;;;;;;;;;21.20;81.90;;;;;;5074537;28;20455;-47
2022/12/11 13:20:27;;;;;;;;;;;21.20;81.70;;;;;;5094115;28;19923;-48
2022/12/11 13:23:08;;;;;;;;;;;21.20;81.80;;;;;;5093661;28;20325;-49
2022/12/11 13:25:47;;;;;;;;;;;21.30;82.00;;;;;;5093958;28;19908;-46
2022/12/11 13:28:24;;;;;;;;;;;21.30;81.90;;;;;;5094019;28;19908;-48
2022/12/11 13:30:57;;;;;;;;;;;21.30;82.00;;;;;;5092256;28;19908;-48
2022/12/11 13:33:23;;;;;;;;;;;21.30;82.00;;;;;;5092452;28;19999;-48
2022/12/11 13:36:02;;;;;;;;;;;21.30;82.30;;;;;;5093889;28;19943;-49
2022/12/11 13:38:28;;;;;;;;;;;21.30;82.80;;;;;;5093693;28;19957;-47
2022/12/11 13:40:55;;;;;;;;;;;21.30;82.20;;;;;;5093485;28;19916;-47
2022/12/11 13:43:22;;;;;;;;;;;21.20;82.20;;;;;;5093879;28;19908;-45
2022/12/11 13:45:48;;;;;;;;;;;21.20;82.30;;;;;;5093405;28;19908;-49
2022/12/11 13:48:17;;;;;;;;;;;21.20;82.40;;;;;;5097781;28;20308;-47
2022/12/11 13:50:42;;;;;;;;;;;21.20;82.40;;;;;;5097914;28;19912;-45
2022/12/11 13:53:14;;;;;;;;;;;21.10;82.40;;;;;;5097722;28;19908;-48
2022/12/11 13:55:39;;;;;;;;;;;21.10;82.50;;;;;;5097710;28;20343;-47
2022/12/11 13:58:14;;;;;;;;;;;21.10;82.50;;;;;;5097924;28;19923;-50
2022/12/11 14:00:40;;;;;;;;;;;21.10;82.60;;;;;;5097853;28;20350;-50
2022/12/11 14:03:08;;;;;;;;;;;21.10;82.60;;;;;;5097413;28;19915;-52
2022/12/11 14:05:34;;;;;;;;;;;21.10;82.70;;;;;;5097262;28;19953;-47
2022/12/11 14:08:04;;;;;;;;;;;21.10;82.80;;;;;;5097727;28;20347;-47
2022/12/11 14:10:31;;;;;;;;;;;21.10;82.90;;;;;;5097582;28;19908;-47
2022/12/11 14:13:01;;;;;;;;;;;21.10;82.80;;;;;;5097240;28;20402;-52
2022/12/11 14:15:27;;;;;;;;;;;21.10;82.80;;;;;;5097512;28;19962;-46
2022/12/11 14:17:53;;;;;;;;;;;21.10;82.60;;;;;;5097250;28;19920;-48
2022/12/11 14:20:23;;;;;;;;;;;21.10;82.60;;;;;;5097232;28;20247;-50
2022/12/11 14:22:49;;;;;;;;;;;21.10;82.70;;;;;;5097081;28;20398;-48
2022/12/11 14:25:24;;;;;;;;;;;21.10;82.80;;;;;;5097351;28;19951;-46
2022/12/11 14:27:51;;;;;;;;;;;21.10;82.70;;;;;;5097017;28;19936;-51
2022/12/11 14:30:22;;;;;;;;;;;21.10;82.70;;;;;;5095749;28;20342;-49
2022/12/11 14:32:48;;;;;;;;;;;21.10;82.60;;;;;;5097101;28;19919;-47